createdAt,value
2018-07-16T00:01:14.727Z,2
2018-07-16T00:06:16.977Z,1.3
2018-07-16T00:16:21.549Z,2.6
2018-07-16T00:21:23.931Z,1.4
2018-07-16T00:26:26.322Z,1.5
2018-07-16T00:31:28.492Z,1.6
2018-07-16T00:36:30.866Z,1.8
2018-07-16T00:41:33.208Z,1.6
2018-07-16T00:46:35.542Z,3
2018-07-16T00:51:37.616Z,3.9
2018-07-16T00:56:39.957Z,3.9
2018-07-16T01:01:42.412Z,3.1
2018-07-16T01:06:44.578Z,2.5
2018-07-16T01:11:46.915Z,1.6
2018-07-16T01:16:49.115Z,3.3
2018-07-16T01:21:51.490Z,4.2
2018-07-16T01:26:53.696Z,2.3
2018-07-16T01:31:56.054Z,2.7
2018-07-16T01:36:58.470Z,3
2018-07-16T01:42:00.662Z,2.9
2018-07-16T01:47:02.982Z,1.7
2018-07-16T01:52:05.234Z,2.7
2018-07-16T01:57:07.494Z,1.7
2018-07-16T02:02:09.787Z,1.9
2018-07-16T02:07:12.045Z,2.1
2018-07-16T02:12:14.394Z,3
2018-07-16T02:22:18.978Z,2.8
2018-07-16T02:27:21.349Z,4
2018-07-16T02:32:23.563Z,3.7
2018-07-16T02:37:25.860Z,4.6
2018-07-16T02:42:28.211Z,1.2
2018-07-16T02:47:30.399Z,4
2018-07-16T02:52:32.668Z,2.9
2018-07-16T02:57:35.024Z,2.6
2018-07-16T03:02:37.400Z,3.2
2018-07-16T03:07:39.636Z,4.6
2018-07-16T03:12:41.883Z,3.2
2018-07-16T03:17:44.207Z,2.4
2018-07-16T03:22:46.554Z,4.7
2018-07-16T03:27:48.756Z,2.7
2018-07-16T03:32:51.091Z,2
2018-07-16T03:37:53.367Z,3.3
2018-07-16T03:42:55.718Z,1.5
2018-07-16T03:47:58.118Z,1.6
2018-07-16T03:53:00.220Z,3
2018-07-16T03:58:02.709Z,4.2
2018-07-16T04:03:04.786Z,2.6
2018-07-16T04:08:07.087Z,2.5
2018-07-16T04:13:09.522Z,2.6
2018-07-16T04:18:11.784Z,2.4
2018-07-16T04:23:14.071Z,2
2018-07-16T04:28:16.375Z,2.3
2018-07-16T04:33:18.588Z,1.7
2018-07-16T04:38:20.897Z,3.4
2018-07-16T04:43:23.220Z,2.9
2018-07-16T04:48:25.507Z,2.5
2018-07-16T04:53:27.867Z,3
2018-07-16T04:58:30.011Z,4
2018-07-16T05:03:32.405Z,2.3
2018-07-16T05:08:34.639Z,2.3
2018-07-16T05:13:36.984Z,2.1
2018-07-16T05:18:39.364Z,2.9
2018-07-16T05:29:12.708Z,2.6
2018-07-16T05:34:15.015Z,2.8
2018-07-16T05:39:17.402Z,3.9
2018-07-16T05:44:19.677Z,2.8
2018-07-16T05:49:21.835Z,2.4
2018-07-16T05:54:24.121Z,2.8
2018-07-16T05:59:26.608Z,0.9
2018-07-16T06:04:28.847Z,3.6
2018-07-16T06:09:31.064Z,2.7
2018-07-16T06:14:33.409Z,0.8
2018-07-16T06:19:35.678Z,2.1
2018-07-16T06:24:37.958Z,1.3
2018-07-16T06:29:40.366Z,1.2
2018-07-16T06:34:42.646Z,2.6
2018-07-16T06:39:45.068Z,0.9
2018-07-16T06:44:47.150Z,1.1
2018-07-16T06:49:49.479Z,0.8
2018-07-16T06:54:51.808Z,1
2018-07-16T06:59:54.020Z,0.9
2018-07-16T07:04:56.513Z,0.8
2018-07-16T07:09:58.704Z,1
2018-07-16T07:15:00.961Z,0.3
2018-07-16T07:20:03.205Z,1.3
2018-07-16T07:25:05.591Z,1
2018-07-16T07:30:07.812Z,1.2
2018-07-16T07:35:10.143Z,1.5
2018-07-16T07:40:12.398Z,1.1
2018-07-16T07:45:14.724Z,0.8
2018-07-16T07:50:16.974Z,0.9
2018-07-16T07:55:19.607Z,0.3
2018-07-16T08:00:21.664Z,1
2018-07-16T08:05:23.849Z,0.3
2018-07-16T08:10:26.033Z,2
2018-07-16T08:15:28.375Z,2.7
2018-07-16T08:20:30.773Z,1.5
2018-07-16T08:25:33.095Z,0.7
2018-07-16T08:30:35.282Z,1.2
2018-07-16T08:35:37.629Z,0.6
2018-07-16T08:40:39.848Z,1.4
2018-07-16T08:45:42.204Z,1.3
2018-07-16T08:50:44.497Z,0.7
2018-07-16T08:55:46.840Z,1.4
2018-07-16T09:00:49.165Z,0.8
2018-07-16T09:05:51.322Z,0.8
2018-07-16T09:10:53.792Z,1.4
2018-07-16T09:15:55.887Z,0.1
2018-07-16T09:20:58.209Z,1.5
2018-07-16T09:26:00.567Z,1.1
2018-07-16T09:31:02.873Z,1.1
2018-07-16T09:36:05.097Z,0.6
2018-07-16T09:41:07.520Z,0.7
2018-07-16T09:46:09.815Z,0.6
2018-07-16T09:51:11.975Z,0.3
2018-07-16T09:56:14.351Z,1
2018-07-16T10:01:16.564Z,1.2
2018-07-16T10:06:18.984Z,1.1
2018-07-16T10:11:21.245Z,1.6
2018-07-16T10:16:23.585Z,1.6
2018-07-16T10:21:25.713Z,2.2
2018-07-16T10:26:28.117Z,2.1
2018-07-16T10:31:30.288Z,1.1
2018-07-16T10:36:32.644Z,1.6
2018-07-16T10:41:34.866Z,1.5
2018-07-16T10:46:37.284Z,1.3
2018-07-16T10:51:39.465Z,1.8
2018-07-16T10:56:41.807Z,1.2
2018-07-16T11:01:44.215Z,1.6
2018-07-16T11:06:46.479Z,2.4
2018-07-16T11:11:48.645Z,0.8
2018-07-16T11:16:51.037Z,2.7
2018-07-16T11:21:53.345Z,2.1
2018-07-16T11:26:55.672Z,1.6
2018-07-16T11:31:57.861Z,1.1
2018-07-16T11:37:00.313Z,1.9
2018-07-16T11:42:02.451Z,2.6
2018-07-16T11:47:04.705Z,2.3
2018-07-16T11:52:07.178Z,0.7
2018-07-16T11:57:09.477Z,2.4
2018-07-16T12:02:11.612Z,1.5
2018-07-16T12:07:13.950Z,1.8
2018-07-16T12:12:16.213Z,0.9
2018-07-16T12:17:18.654Z,1.4
2018-07-16T12:22:20.816Z,1
2018-07-16T12:27:23.213Z,1.2
2018-07-16T12:32:25.440Z,1.1
2018-07-16T12:37:27.873Z,1.2
2018-07-16T12:42:29.988Z,1.2
2018-07-16T12:47:32.428Z,1.7
2018-07-16T12:52:34.711Z,1.1
2018-07-16T12:57:36.817Z,2.8
2018-07-16T13:02:39.204Z,4.5
2018-07-16T13:07:41.538Z,2
2018-07-16T13:12:43.887Z,3.1
2018-07-16T13:22:48.389Z,2.1
2018-07-16T13:27:50.751Z,2.3
2018-07-16T13:32:52.965Z,1
2018-07-16T13:37:55.251Z,1.6
2018-07-16T13:42:57.469Z,2.4
2018-07-16T13:47:59.838Z,1.3
2018-07-16T13:53:02.187Z,2.6
2018-07-16T13:58:04.476Z,3
2018-07-16T14:03:06.789Z,1.9
2018-07-16T14:08:08.961Z,1.9
2018-07-16T14:13:11.255Z,1
2018-07-16T14:18:13.609Z,2.5
2018-07-16T14:23:16.022Z,1.7
2018-07-16T14:33:20.496Z,1.8
2018-07-16T14:38:22.883Z,2.1
2018-07-16T14:43:25.160Z,2.4
2018-07-16T14:48:27.338Z,2.6
2018-07-16T14:53:29.667Z,2.1
2018-07-16T14:58:32.006Z,2.5
2018-07-16T15:03:34.211Z,1.7
2018-07-16T15:08:36.704Z,1.8
2018-07-16T15:13:38.851Z,1.5
2018-07-16T15:18:41.170Z,2.6
2018-07-16T15:23:43.487Z,2.2
2018-07-16T15:28:45.810Z,2.2
2018-07-16T15:33:48.024Z,1.6
2018-07-16T15:38:50.281Z,2.8
2018-07-16T15:43:52.679Z,0.9
2018-07-16T15:48:54.882Z,1.8
2018-07-16T15:53:57.136Z,1.9
2018-07-16T15:58:59.634Z,2.6
2018-07-16T16:04:01.870Z,1.4
2018-07-16T16:09:04.161Z,2.4
2018-07-16T16:14:06.532Z,2.6
2018-07-16T16:19:08.728Z,2.2
2018-07-16T16:24:10.909Z,3.4
2018-07-16T16:29:13.457Z,2
2018-07-16T16:34:15.627Z,2.4
2018-07-16T16:39:17.814Z,3.5
2018-07-16T16:44:20.171Z,3
2018-07-16T16:49:22.602Z,1.7
2018-07-16T16:54:24.905Z,1.7
2018-07-16T16:59:27.144Z,4
2018-07-16T17:04:29.324Z,7.3
2018-07-16T17:09:31.579Z,7.1
2018-07-16T17:14:33.982Z,7.4
2018-07-16T17:19:36.428Z,8.3
2018-07-16T17:24:38.407Z,4.2
2018-07-16T17:29:40.883Z,6.4
2018-07-16T17:34:43.133Z,5.9
2018-07-16T17:39:45.343Z,4.5
2018-07-16T17:44:47.802Z,5.7
2018-07-16T17:49:50.026Z,6
2018-07-16T17:54:52.281Z,6.8
2018-07-16T17:59:54.702Z,9.5
2018-07-16T18:04:56.847Z,5.3
2018-07-16T18:09:59.147Z,6.5
2018-07-16T18:15:01.481Z,7.4
2018-07-16T18:20:03.750Z,13.5
2018-07-16T18:25:06.065Z,8.6
2018-07-16T18:30:08.251Z,13.7
2018-07-16T18:35:10.904Z,6.8
2018-07-16T18:40:12.889Z,13.2
2018-07-16T18:45:15.221Z,11.2
2018-07-16T18:50:17.593Z,10.6
2018-07-16T18:55:19.982Z,12.6
2018-07-16T19:00:22.064Z,11.1
2018-07-16T19:05:24.385Z,9
2018-07-16T19:10:26.720Z,11.4
2018-07-16T19:15:29.127Z,14.1
2018-07-16T19:20:31.363Z,9.6
2018-07-16T19:25:33.549Z,13.8
2018-07-16T19:30:35.900Z,15.5
2018-07-16T19:35:38.233Z,10.1
2018-07-16T19:40:40.927Z,10.8
2018-07-16T19:45:42.846Z,10.6
2018-07-16T19:50:45.166Z,9.4
2018-07-16T19:55:47.375Z,5.5
2018-07-16T20:00:49.599Z,10.2
2018-07-16T20:05:51.844Z,15
2018-07-16T20:10:54.398Z,7
2018-07-16T20:15:56.532Z,10.2
2018-07-16T20:20:58.837Z,12.9
2018-07-16T20:26:01.110Z,7.9
2018-07-16T20:31:03.354Z,12
2018-07-16T20:36:05.746Z,10.9
2018-07-16T20:41:07.945Z,15
2018-07-16T20:46:10.339Z,16.299999
2018-07-16T20:51:12.595Z,7.9
2018-07-16T20:56:14.841Z,12.6
2018-07-16T21:01:17.186Z,8.8
2018-07-16T21:06:19.606Z,10.2
2018-07-16T21:11:21.723Z,11.3
2018-07-16T21:16:24.061Z,9.7
2018-07-16T21:21:26.380Z,11.7
2018-07-16T21:26:28.707Z,8.9
2018-07-16T21:31:30.935Z,7.9
2018-07-16T21:36:33.441Z,9.4
2018-07-16T21:41:35.682Z,10.6
2018-07-16T21:46:37.843Z,7.1
2018-07-16T21:51:40.153Z,9.6
2018-07-16T21:56:42.509Z,12.3
2018-07-16T22:01:44.756Z,11
2018-07-16T22:06:47.015Z,13
2018-07-16T22:11:49.264Z,12.6
2018-07-16T22:16:51.747Z,10.9
2018-07-16T22:21:53.935Z,10.2
2018-07-16T22:26:56.266Z,7.8
2018-07-16T22:31:58.601Z,10.3
2018-07-16T22:37:00.788Z,10
2018-07-16T22:42:03.057Z,7.4
2018-07-16T22:52:07.809Z,8.7
2018-07-16T22:57:10.004Z,10.3
2018-07-16T23:02:12.360Z,8.3
2018-07-16T23:07:14.605Z,8.2
2018-07-16T23:12:16.932Z,10
2018-07-16T23:17:19.076Z,9.5
2018-07-16T23:22:21.511Z,9.5
2018-07-16T23:27:23.764Z,11.1
2018-07-16T23:32:26.179Z,12.3
2018-07-16T23:37:28.297Z,11.7
2018-07-16T23:42:30.558Z,11
2018-07-16T23:47:32.984Z,12.4
2018-07-16T23:52:35.307Z,11.9
2018-07-16T23:57:37.567Z,6.9
